Time;durP1;ratioP1;P1;durP2;ratioP2;P2;SDS_P1;SDS_P2;PMS_P1;PMS_P2;Temp;Humidity;BMP_temperature;BMP_pressure;BME280_temperature;BME280_humidity;BME280_pressure;Samples;Min_cycle;Max_cycle;Signal;HPM_P1;HPM_P2
2023/04/25 00:00:47;;;;;;;;;;;;;;;15.26;nan;100505.84;5038401;28;20574;-80
2023/04/25 00:03:13;;;;;;;;;;;;;;;15.20;nan;100501.59;5039270;28;19917;-79
2023/04/25 00:05:38;;;;;;;;;;;;;;;15.20;nan;100496.22;5040170;28;20033;-80
2023/04/25 00:08:04;;;;;;;;;;;;;;;15.24;nan;100499.94;5042615;28;20445;-80
2023/04/25 00:10:29;;;;;;;;;;;;;;;15.17;nan;100502.97;5039989;28;19928;-80
2023/04/25 00:12:55;;;;;;;;;;;;;;;15.15;nan;100494.38;5039056;28;19917;-80
2023/04/25 00:15:20;;;;;;;;;;;;;;;15.13;nan;100491.16;5039240;28;19924;-80
2023/04/25 00:17:46;;;;;;;;;;;;;;;15.14;nan;100490.06;5040906;28;19948;-80
2023/04/25 00:20:11;;;;;;;;;;;;;;;15.13;nan;100485.75;5041859;28;20363;-81
2023/04/25 00:22:37;;;;;;;;;;;;;;;15.18;nan;100487.59;5046820;28;19925;-80
2023/04/25 00:25:03;;;;;;;;;;;;;;;15.15;nan;100482.78;5047490;28;20302;-79
2023/04/25 00:27:29;;;;;;;;;;;;;;;15.08;nan;100467.72;5047793;28;19917;-79
2023/04/25 00:29:54;;;;;;;;;;;;;;;15.06;nan;100477.16;5044180;28;19924;-80
2023/04/25 00:32:19;;;;;;;;;;;;;;;15.05;nan;100486.34;5046003;28;19963;-79
2023/04/25 00:34:45;;;;;;;;;;;;;;;15.11;nan;100487.94;5059777;28;20024;-79
2023/04/25 00:37:10;;;;;;;;;;;;;;;15.08;nan;100492.00;5043777;28;19952;-80
2023/04/25 00:39:35;;;;;;;;;;;;;;;15.02;nan;100495.03;5044219;28;19957;-80
2023/04/25 00:42:01;;;;;;;;;;;;;;;15.06;nan;100501.47;5043823;28;19932;-80
2023/04/25 00:44:27;;;;;;;;;;;;;;;15.07;nan;100497.66;5039739;28;19917;-79
2023/04/25 00:46:53;;;;;;;;;;;;;;;15.07;nan;100495.78;5043537;28;20271;-80
2023/04/25 00:49:19;;;;;;;;;;;;;;;15.03;nan;100500.13;5045206;28;19917;-79
2023/04/25 00:51:44;;;;;;;;;;;;;;;15.02;nan;100503.13;5044342;28;20586;-79
2023/04/25 00:54:10;;;;;;;;;;;;;;;14.97;nan;100503.97;5042646;28;19917;-80
2023/04/25 00:56:36;;;;;;;;;;;;;;;14.97;nan;100495.88;5042909;28;19921;-80
2023/04/25 00:59:01;;;;;;;;;;;;;;;14.94;nan;100492.94;5042159;28;19925;-80
2023/04/25 01:01:27;;;;;;;;;;;;;;;14.82;nan;100496.81;5042721;28;19921;-79
2023/04/25 01:03:53;;;;;;;;;;;;;;;14.69;nan;100497.44;5043179;28;19970;-80
2023/04/25 01:06:19;;;;;;;;;;;;;;;14.58;nan;100495.13;5042267;28;19964;-80
2023/04/25 01:08:44;;;;;;;;;;;;;;;14.50;nan;100499.19;5042418;28;19931;-80
2023/04/25 01:11:10;;;;;;;;;;;;;;;14.50;nan;100489.22;5059449;28;20011;-80
2023/04/25 01:13:35;;;;;;;;;;;;;;;14.52;nan;100487.03;5043936;28;20309;-79
2023/04/25 01:16:01;;;;;;;;;;;;;;;14.50;nan;100486.53;5043770;28;20537;-79
2023/04/25 01:18:27;;;;;;;;;;;;;;;14.53;nan;100490.53;5044121;28;20375;-80
2023/04/25 01:20:53;;;;;;;;;;;;;;;14.54;nan;100486.75;5036305;28;19963;-80
2023/04/25 01:23:19;;;;;;;;;;;;;;;14.55;nan;100488.41;5040412;28;19981;-80
2023/04/25 01:25:45;;;;;;;;;;;;;;;14.61;nan;100483.78;5040436;28;20015;-80
2023/04/25 01:28:10;;;;;;;;;;;;;;;14.58;nan;100485.13;5036091;28;20004;-80
2023/04/25 01:30:36;;;;;;;;;;;;;;;14.56;nan;100492.72;5038289;28;20348;-80
2023/04/25 01:33:04;;;;;;;;;;;;;;;14.57;nan;100494.31;5035432;28;20005;-79
2023/04/25 01:35:29;;;;;;;;;;;;;;;14.58;nan;100492.41;5040882;28;19994;-79
2023/04/25 01:37:55;;;;;;;;;;;;;;;14.55;nan;100491.09;5036373;28;20382;-80
2023/04/25 01:40:21;;;;;;;;;;;;;;;14.48;nan;100493.28;5037099;28;19924;-80
2023/04/25 01:42:46;;;;;;;;;;;;;;;14.47;nan;100497.06;5038843;28;19955;-80
2023/04/25 01:45:12;;;;;;;;;;;;;;;14.46;nan;100495.47;5038632;28;20350;-79
2023/04/25 01:47:39;;;;;;;;;;;;;;;14.43;nan;100496.00;5041911;28;20307;-80
2023/04/25 01:50:05;;;;;;;;;;;;;;;14.43;nan;100494.13;5036977;28;19921;-80
2023/04/25 01:52:31;;;;;;;;;;;;;;;14.44;nan;100503.03;5038606;28;20021;-81
2023/04/25 01:54:57;;;;;;;;;;;;;;;14.39;nan;100497.63;5037480;28;19984;-80
2023/04/25 01:57:22;;;;;;;;;;;;;;;14.42;nan;100499.78;5038781;28;19927;-79
2023/04/25 01:59:48;;;;;;;;;;;;;;;14.41;nan;100503.56;5038070;28;19925;-80
2023/04/25 02:02:14;;;;;;;;;;;;;;;14.40;nan;100494.66;5037499;28;20004;-79
2023/04/25 02:04:39;;;;;;;;;;;;;;;14.38;nan;100499.53;5036375;28;20397;-80
2023/04/25 02:07:04;;;;;;;;;;;;;;;14.35;nan;100500.06;5038893;28;19927;-79
2023/04/25 02:09:30;;;;;;;;;;;;;;;14.35;nan;100499.25;5038890;28;19920;-79
2023/04/25 02:11:55;;;;;;;;;;;;;;;14.38;nan;100504.13;5039805;28;19921;-79
2023/04/25 02:14:20;;;;;;;;;;;;;;;14.42;nan;100507.84;5037167;28;19940;-80
2023/04/25 02:16:46;;;;;;;;;;;;;;;14.45;nan;100504.63;5036443;28;19921;-79
2023/04/25 02:19:11;;;;;;;;;;;;;;;14.41;nan;100501.66;5033972;28;19944;-80
2023/04/25 02:21:37;;;;;;;;;;;;;;;14.35;nan;100504.66;5036087;28;19925;-79
2023/04/25 02:24:03;;;;;;;;;;;;;;;14.40;nan;100493.84;5038931;28;19928;-80
2023/04/25 02:26:28;;;;;;;;;;;;;;;14.44;nan;100503.81;5039206;28;20407;-79
2023/04/25 02:28:53;;;;;;;;;;;;;;;14.48;nan;100495.97;5036986;28;19933;-80
2023/04/25 02:31:19;;;;;;;;;;;;;;;14.45;nan;100496.53;5041694;28;19928;-79
2023/04/25 02:33:44;;;;;;;;;;;;;;;14.49;nan;100498.38;5038085;28;20005;-79
2023/04/25 02:36:10;;;;;;;;;;;;;;;14.49;nan;100502.97;5038602;28;19916;-80
2023/04/25 02:38:35;;;;;;;;;;;;;;;14.51;nan;100498.09;5037300;28;20433;-80
2023/04/25 02:41:00;;;;;;;;;;;;;;;14.50;nan;100501.88;5038351;28;19921;-79
2023/04/25 02:43:26;;;;;;;;;;;;;;;14.55;nan;100496.50;5037374;28;19928;-79
2023/04/25 02:45:51;;;;;;;;;;;;;;;14.57;nan;100498.91;5039432;28;19925;-79
2023/04/25 02:48:17;;;;;;;;;;;;;;;14.61;nan;100500.75;5039108;28;19917;-79
2023/04/25 02:50:42;;;;;;;;;;;;;;;14.61;nan;100502.63;5035116;28;19917;-80
2023/04/25 02:53:07;;;;;;;;;;;;;;;14.61;nan;100498.06;5037643;28;19920;-79
2023/04/25 02:55:33;;;;;;;;;;;;;;;14.61;nan;100499.94;5037713;28;19920;-80
2023/04/25 02:57:58;;;;;;;;;;;;;;;14.59;nan;100488.63;5035950;28;20282;-80
2023/04/25 03:00:23;;;;;;;;;;;;;;;14.54;nan;100478.66;5036700;28;20392;-79
2023/04/25 03:02:49;;;;;;;;;;;;;;;14.55;nan;100479.50;5037720;28;19929;-80
2023/04/25 03:05:14;;;;;;;;;;;;;;;14.48;nan;100488.69;5047490;28;19925;-80
2023/04/25 03:07:40;;;;;;;;;;;;;;;14.48;nan;100479.81;5043731;28;20390;-79
2023/04/25 03:10:09;;;;;;;;;;;;;;;14.54;nan;100488.66;5047971;28;19932;-80
2023/04/25 03:12:34;;;;;;;;;;;;;;;14.58;nan;100487.84;5046318;28;19926;-80
2023/04/25 03:14:59;;;;;;;;;;;;;;;14.61;nan;100484.56;5048755;28;20294;-80
2023/04/25 03:17:25;;;;;;;;;;;;;;;14.65;nan;100487.50;5047650;28;20461;-80
2023/04/25 03:19:50;;;;;;;;;;;;;;;14.66;nan;100487.22;5049579;28;20002;-79
2023/04/25 03:22:15;;;;;;;;;;;;;;;14.68;nan;100490.44;5050722;28;20418;-80
2023/04/25 03:24:41;;;;;;;;;;;;;;;14.69;nan;100492.03;5049218;28;20402;-80
2023/04/25 03:27:06;;;;;;;;;;;;;;;14.75;nan;100493.63;5048484;28;19946;-80
2023/04/25 03:29:31;;;;;;;;;;;;;;;14.78;nan;100489.56;5048761;28;19936;-80
2023/04/25 03:31:57;;;;;;;;;;;;;;;14.80;nan;100487.38;5049884;28;20309;-80
2023/04/25 03:34:23;;;;;;;;;;;;;;;14.79;nan;100485.78;5045260;28;20578;-79
2023/04/25 03:36:49;;;;;;;;;;;;;;;14.78;nan;100493.06;5049842;28;20401;-80
2023/04/25 03:39:15;;;;;;;;;;;;;;;14.77;nan;100488.75;5045712;28;19952;-80
2023/04/25 03:41:40;;;;;;;;;;;;;;;14.82;nan;100496.81;5048799;28;19921;-80
2023/04/25 03:44:05;;;;;;;;;;;;;;;14.89;nan;100496.47;5044743;28;19932;-80
2023/04/25 03:46:31;;;;;;;;;;;;;;;14.87;nan;100493.25;5046942;28;19932;-80
2023/04/25 03:48:56;;;;;;;;;;;;;;;14.86;nan;100491.66;5048709;28;20075;-80
2023/04/25 03:51:21;;;;;;;;;;;;;;;14.88;nan;100494.88;5045675;28;20157;-80
2023/04/25 03:53:47;;;;;;;;;;;;;;;14.88;nan;100494.06;5046564;28;19927;-80
2023/04/25 03:56:13;;;;;;;;;;;;;;;14.90;nan;100497.28;5042549;28;19943;-80
2023/04/25 03:58:38;;;;;;;;;;;;;;;14.91;nan;100499.72;5043856;28;19981;-80
2023/04/25 04:01:07;;;;;;;;;;;;;;;14.90;nan;100502.66;5042751;28;19917;-80
2023/04/25 04:03:32;;;;;;;;;;;;;;;14.95;nan;100505.34;5045530;28;19920;-80
2023/04/25 04:05:59;;;;;;;;;;;;;;;14.95;nan;100494.56;5048923;28;19927;-80
2023/04/25 04:08:24;;;;;;;;;;;;;;;14.98;nan;100502.06;5043541;28;19924;-80
2023/04/25 04:10:50;;;;;;;;;;;;;;;15.01;nan;100507.72;5048307;28;19920;-81
2023/04/25 04:13:15;;;;;;;;;;;;;;;15.06;nan;100501.47;5042638;28;19935;-81
2023/04/25 04:15:40;;;;;;;;;;;;;;;15.10;nan;100508.72;5046147;28;19917;-81
2023/04/25 04:18:06;;;;;;;;;;;;;;;15.11;nan;100506.81;5040733;28;20655;-81
2023/04/25 04:20:31;;;;;;;;;;;;;;;15.05;nan;100506.03;5041337;28;20110;-80
2023/04/25 04:22:56;;;;;;;;;;;;;;;15.03;nan;100513.63;5043702;28;19955;-80
2023/04/25 04:25:22;;;;;;;;;;;;;;;15.05;nan;100510.63;5038897;28;19921;-80
2023/04/25 04:27:47;;;;;;;;;;;;;;;15.01;nan;100509.59;5041251;28;19920;-80
2023/04/25 04:30:12;;;;;;;;;;;;;;;14.96;nan;100512.34;5038809;28;19920;-80
2023/04/25 04:32:38;;;;;;;;;;;;;;;14.94;nan;100520.72;5040637;28;19921;-80
2023/04/25 04:35:04;;;;;;;;;;;;;;;14.94;nan;100526.13;5039665;28;19921;-80
2023/04/25 04:37:29;;;;;;;;;;;;;;;14.97;nan;100516.66;5043279;28;19964;-79
2023/04/25 04:39:55;;;;;;;;;;;;;;;14.97;nan;100520.16;5042099;28;19971;-80
2023/04/25 04:42:21;;;;;;;;;;;;;;;14.99;nan;100528.78;5041367;28;19921;-81
2023/04/25 04:44:46;;;;;;;;;;;;;;;14.96;nan;100517.75;5035704;28;19966;-80
2023/04/25 04:47:13;;;;;;;;;;;;;;;14.94;nan;100525.31;5041290;28;20203;-80
2023/04/25 04:49:39;;;;;;;;;;;;;;;14.87;nan;100530.22;5044437;28;19924;-80
2023/04/25 04:52:05;;;;;;;;;;;;;;;14.89;nan;100528.84;5046662;28;19917;-80
2023/04/25 04:54:30;;;;;;;;;;;;;;;14.90;nan;100530.47;5044240;28;19965;-80
2023/04/25 04:56:56;;;;;;;;;;;;;;;14.91;nan;100536.69;5046341;28;19927;-80
2023/04/25 04:59:21;;;;;;;;;;;;;;;14.89;nan;100533.44;5043821;28;19916;-79
2023/04/25 05:01:46;;;;;;;;;;;;;;;14.89;nan;100533.44;5043768;28;19925;-80
2023/04/25 05:04:12;;;;;;;;;;;;;;;14.87;nan;100538.31;5043494;28;19928;-80
2023/04/25 05:06:37;;;;;;;;;;;;;;;14.85;nan;100537.78;5058923;28;20238;-79
2023/04/25 05:09:03;;;;;;;;;;;;;;;14.82;nan;100534.56;5040753;28;19974;-80
2023/04/25 05:11:28;;;;;;;;;;;;;;;14.90;nan;100535.03;5039449;28;19921;-79
2023/04/25 05:13:54;;;;;;;;;;;;;;;14.91;nan;100536.69;5043601;28;20333;-79
2023/04/25 05:16:20;;;;;;;;;;;;;;;14.95;nan;100537.72;5040830;28;20307;-80
2023/04/25 05:18:46;;;;;;;;;;;;;;;14.99;nan;100536.06;5040355;28;20571;-81
2023/04/25 05:21:11;;;;;;;;;;;;;;;14.99;nan;100534.16;5041146;28;20301;-79
2023/04/25 05:23:36;;;;;;;;;;;;;;;15.02;nan;100532.78;5041396;28;20499;-80
2023/04/25 05:26:02;;;;;;;;;;;;;;;15.08;nan;100526.25;5040405;28;20937;-80
2023/04/25 05:28:27;;;;;;;;;;;;;;;15.12;nan;100535.41;5039540;28;19943;-79
2023/04/25 05:30:52;;;;;;;;;;;;;;;15.15;nan;100542.94;5036881;28;20003;-80
2023/04/25 05:33:18;;;;;;;;;;;;;;;15.18;nan;100547.78;5041681;28;19928;-80
2023/04/25 05:35:43;;;;;;;;;;;;;;;15.20;nan;100547.47;5040288;28;20017;-80
2023/04/25 05:38:09;;;;;;;;;;;;;;;15.17;nan;100540.75;5038443;28;19994;-80
2023/04/25 05:40:34;;;;;;;;;;;;;;;15.25;nan;100552.81;5037933;28;20162;-81
2023/04/25 05:43:00;;;;;;;;;;;;;;;15.32;nan;100547.91;5040263;28;19929;-80
2023/04/25 05:45:25;;;;;;;;;;;;;;;15.42;nan;100554.00;5038870;28;19920;-80
2023/04/25 05:47:50;;;;;;;;;;;;;;;15.46;nan;100553.47;5035553;28;19927;-80
2023/04/25 05:50:16;;;;;;;;;;;;;;;15.45;nan;100558.06;5036872;28;20079;-79
2023/04/25 05:52:41;;;;;;;;;;;;;;;15.47;nan;100565.88;5039650;28;19917;-80
2023/04/25 05:55:07;;;;;;;;;;;;;;;15.50;nan;100565.31;5035566;28;20407;-79
2023/04/25 05:57:32;;;;;;;;;;;;;;;15.57;nan;100563.88;5036653;28;19933;-80
2023/04/25 05:59:57;;;;;;;;;;;;;;;15.59;nan;100560.91;5036933;28;19927;-80
2023/04/25 06:02:23;;;;;;;;;;;;;;;15.65;nan;100567.88;5037866;28;19929;-80
2023/04/25 06:04:49;;;;;;;;;;;;;;;15.73;nan;100569.16;5039574;28;19921;-80
2023/04/25 06:07:15;;;;;;;;;;;;;;;15.71;nan;100570.25;5037097;28;19920;-79
2023/04/25 06:09:40;;;;;;;;;;;;;;;15.69;nan;100571.63;5037430;28;20343;-80
2023/04/25 06:12:06;;;;;;;;;;;;;;;15.71;nan;100577.53;5037295;28;20010;-80
2023/04/25 06:14:32;;;;;;;;;;;;;;;15.71;nan;100574.84;5036362;28;19924;-80
2023/04/25 06:16:57;;;;;;;;;;;;;;;15.73;nan;100569.94;5037227;28;20492;-80
2023/04/25 06:19:22;;;;;;;;;;;;;;;15.74;nan;100574.25;5035509;28;19924;-81
2023/04/25 06:21:48;;;;;;;;;;;;;;;15.73;nan;100580.75;5034711;28;19925;-81
2023/04/25 06:24:13;;;;;;;;;;;;;;;15.69;nan;100580.53;5042249;28;20370;-80
2023/04/25 06:26:38;;;;;;;;;;;;;;;15.70;nan;100586.72;5037112;28;19921;-81
2023/04/25 06:29:04;;;;;;;;;;;;;;;15.68;nan;100578.13;5035008;28;19927;-80
2023/04/25 06:31:32;;;;;;;;;;;;;;;15.70;nan;100581.31;5038478;28;20416;-80
2023/04/25 06:33:57;;;;;;;;;;;;;;;15.67;nan;100584.59;5042848;28;19924;-80
2023/04/25 06:36:24;;;;;;;;;;;;;;;15.69;nan;100579.72;5039743;28;19925;-80
2023/04/25 06:38:53;;;;;;;;;;;;;;;15.73;nan;100591.56;5040798;28;19925;-80
2023/04/25 06:41:18;;;;;;;;;;;;;;;15.75;nan;100594.78;5040137;28;19936;-79
2023/04/25 06:43:44;;;;;;;;;;;;;;;15.68;nan;100587.03;5037467;28;19932;-79
2023/04/25 06:46:09;;;;;;;;;;;;;;;15.61;nan;100589.22;5040636;28;20027;-79
2023/04/25 06:48:34;;;;;;;;;;;;;;;15.58;nan;100589.78;5038277;28;19971;-80
2023/04/25 06:51:00;;;;;;;;;;;;;;;15.46;nan;100596.66;5037224;28;20298;-80
2023/04/25 06:53:25;;;;;;;;;;;;;;;15.35;nan;100594.03;5033578;28;19963;-80
2023/04/25 06:55:51;;;;;;;;;;;;;;;15.27;nan;100593.88;5031113;28;19966;-80
2023/04/25 06:58:16;;;;;;;;;;;;;;;15.29;nan;100595.19;5033003;28;19923;-80
2023/04/25 07:00:42;;;;;;;;;;;;;;;15.27;nan;100596.56;5031450;28;20529;-81
2023/04/25 07:03:07;;;;;;;;;;;;;;;15.34;nan;100597.03;5039916;28;19963;-80
2023/04/25 07:05:32;;;;;;;;;;;;;;;15.32;nan;100594.63;5035441;28;19921;-78
2023/04/25 07:07:58;;;;;;;;;;;;;;;15.29;nan;100586.28;5035933;28;19921;-80
2023/04/25 07:10:23;;;;;;;;;;;;;;;15.34;nan;100597.84;5035078;28;19917;-80
2023/04/25 07:12:48;;;;;;;;;;;;;;;15.45;nan;100595.06;5033497;28;19921;-81
2023/04/25 07:15:14;;;;;;;;;;;;;;;15.50;nan;100595.00;5034291;28;19921;-81
2023/04/25 07:17:39;;;;;;;;;;;;;;;15.55;nan;100600.34;5035111;28;19933;-80
2023/04/25 07:20:05;;;;;;;;;;;;;;;15.64;nan;100604.88;5034764;28;19931;-78
2023/04/25 07:22:31;;;;;;;;;;;;;;;15.63;nan;100599.78;5038711;28;20695;-78
2023/04/25 07:24:57;;;;;;;;;;;;;;;15.67;nan;100608.91;5036881;28;20023;-80
2023/04/25 07:27:22;;;;;;;;;;;;;;;15.73;nan;100610.47;5033755;28;20396;-81
2023/04/25 07:29:47;;;;;;;;;;;;;;;15.74;nan;100603.16;5039039;28;19924;-80
2023/04/25 07:32:13;;;;;;;;;;;;;;;15.75;nan;100608.28;5041023;28;19917;-80
2023/04/25 07:34:39;;;;;;;;;;;;;;;15.70;nan;100617.25;5041454;28;19920;-80
2023/04/25 07:37:05;;;;;;;;;;;;;;;15.64;nan;100623.00;5040671;28;19924;-80
2023/04/25 07:39:30;;;;;;;;;;;;;;;15.64;nan;100614.88;5057233;28;20014;-81
2023/04/25 07:41:58;;;;;;;;;;;;;;;15.63;nan;100621.38;5037213;28;19925;-80
2023/04/25 07:44:23;;;;;;;;;;;;;;;15.66;nan;100620.81;5041851;28;20385;-80
2023/04/25 07:46:52;;;;;;;;;;;;;;;15.65;nan;100621.91;5042175;28;19917;-80
2023/04/25 07:49:17;;;;;;;;;;;;;;;15.66;nan;100623.50;5037005;28;20007;-80
2023/04/25 07:51:45;;;;;;;;;;;;;;;15.67;nan;100625.94;5041028;28;20019;-80
2023/04/25 07:54:14;;;;;;;;;;;;;;;15.64;nan;100631.91;5040722;28;19920;-79
2023/04/25 07:56:39;;;;;;;;;;;;;;;15.59;nan;100642.72;5039516;28;19925;-81
2023/04/25 07:59:05;;;;;;;;;;;;;;;15.56;nan;100643.28;5039098;28;19921;-80
2023/04/25 08:01:30;;;;;;;;;;;;;;;15.59;nan;100637.31;5038100;28;19928;-79
2023/04/25 08:03:55;;;;;;;;;;;;;;;15.48;nan;100638.50;5035334;28;19955;-81
2023/04/25 08:06:21;;;;;;;;;;;;;;;15.43;nan;100638.50;5038601;28;19986;-81
2023/04/25 08:08:46;;;;;;;;;;;;;;;15.45;nan;100643.66;5039529;28;20035;-80
2023/04/25 08:11:11;;;;;;;;;;;;;;;15.51;nan;100642.50;5039354;28;19928;-81
2023/04/25 08:13:37;;;;;;;;;;;;;;;15.60;nan;100651.63;5039692;28;19924;-80
2023/04/25 08:16:02;;;;;;;;;;;;;;;15.61;nan;100650.53;5039403;28;19917;-80
2023/04/25 08:18:27;;;;;;;;;;;;;;;15.64;nan;100658.09;5036704;28;19924;-80
2023/04/25 08:20:53;;;;;;;;;;;;;;;15.69;nan;100661.56;5038172;28;19924;-80
2023/04/25 08:23:18;;;;;;;;;;;;;;;15.74;nan;100668.78;5038659;28;19932;-80
2023/04/25 08:25:43;;;;;;;;;;;;;;;15.77;nan;100670.94;5042009;28;19928;-80
2023/04/25 08:28:09;;;;;;;;;;;;;;;15.79;nan;100667.94;5039094;28;20007;-80
2023/04/25 08:30:34;;;;;;;;;;;;;;;15.78;nan;100675.25;5037858;28;19917;-80
2023/04/25 08:33:00;;;;;;;;;;;;;;;15.73;nan;100679.88;5043145;28;20306;-80
2023/04/25 08:35:25;;;;;;;;;;;;;;;15.68;nan;100686.94;5034458;28;20022;-78
2023/04/25 08:37:51;;;;;;;;;;;;;;;15.65;nan;100692.94;5037550;28;20019;-81
2023/04/25 08:40:16;;;;;;;;;;;;;;;15.61;nan;100694.56;5039579;28;19921;-80
2023/04/25 08:42:42;;;;;;;;;;;;;;;15.61;nan;100693.75;5041341;28;19925;-80
2023/04/25 08:45:08;;;;;;;;;;;;;;;15.57;nan;100693.47;5036566;28;20351;-80
2023/04/25 08:47:34;;;;;;;;;;;;;;;15.63;nan;100697.00;5040374;28;20055;-80
2023/04/25 08:49:59;;;;;;;;;;;;;;;15.62;nan;100698.91;5040250;28;19978;-80
2023/04/25 08:52:27;;;;;;;;;;;;;;;15.68;nan;100702.34;5039968;28;19925;-79
2023/04/25 08:54:54;;;;;;;;;;;;;;;15.67;nan;100703.44;5038831;28;19917;-79
2023/04/25 08:57:19;;;;;;;;;;;;;;;15.72;nan;100703.41;5037475;28;19916;-80
2023/04/25 08:59:46;;;;;;;;;;;;;;;15.78;nan;100702.25;5036624;28;20413;-79
2023/04/25 09:02:15;;;;;;;;;;;;;;;15.88;nan;100702.16;5034928;28;20714;-79
2023/04/25 09:04:42;;;;;;;;;;;;;;;16.01;nan;100703.41;5056439;28;19932;-79
2023/04/25 09:07:08;;;;;;;;;;;;;;;16.16;nan;100705.16;5037082;28;19920;-80
2023/04/25 09:09:33;;;;;;;;;;;;;;;16.24;nan;100702.63;5038583;28;19924;-80
2023/04/25 09:11:59;;;;;;;;;;;;;;;16.34;nan;100715.25;5034058;28;20022;-80
2023/04/25 09:14:25;;;;;;;;;;;;;;;16.50;nan;100713.16;5039572;28;19999;-80
2023/04/25 09:16:57;;;;;;;;;;;;;;;16.66;nan;100714.59;5033536;28;20007;-80
2023/04/25 09:19:23;;;;;;;;;;;;;;;16.81;nan;100719.03;5035755;28;20032;-80
2023/04/25 09:21:49;;;;;;;;;;;;;;;16.84;nan;100729.28;5038836;28;20284;-80
2023/04/25 09:24:14;;;;;;;;;;;;;;;16.90;nan;100725.44;5033673;28;19929;-80
2023/04/25 09:26:40;;;;;;;;;;;;;;;17.02;nan;100735.81;5034455;28;19917;-79
2023/04/25 09:29:08;;;;;;;;;;;;;;;17.07;nan;100735.75;5038708;28;20071;-79
2023/04/25 09:31:34;;;;;;;;;;;;;;;17.10;nan;100738.69;5035143;28;21819;-80
2023/04/25 09:34:00;;;;;;;;;;;;;;;17.06;nan;100745.78;5037145;28;19947;-81
2023/04/25 09:36:26;;;;;;;;;;;;;;;17.07;nan;100739.28;5036430;28;19936;-80
2023/04/25 09:38:52;;;;;;;;;;;;;;;17.20;nan;100737.72;5037415;28;20390;-80
2023/04/25 09:41:22;;;;;;;;;;;;;;;17.34;nan;100738.59;5037887;28;19928;-81
2023/04/25 09:43:48;;;;;;;;;;;;;;;17.40;nan;100742.03;5036440;28;19924;-79
2023/04/25 09:46:14;;;;;;;;;;;;;;;17.49;nan;100740.28;5037050;28;19916;-81
2023/04/25 09:48:40;;;;;;;;;;;;;;;17.71;nan;100748.63;5040306;28;20271;-79
2023/04/25 09:51:13;;;;;;;;;;;;;;;17.80;nan;100736.03;5035486;28;20306;-80
2023/04/25 09:53:42;;;;;;;;;;;;;;;17.97;nan;100734.69;5036730;28;19917;-81
2023/04/25 09:56:10;;;;;;;;;;;;;;;18.08;nan;100736.91;5036441;28;19925;-81
2023/04/25 09:58:36;;;;;;;;;;;;;;;18.19;nan;100736.72;5036542;28;19917;-80
2023/04/25 10:01:02;;;;;;;;;;;;;;;18.24;nan;100740.16;5050850;28;20306;-81
2023/04/25 10:03:31;;;;;;;;;;;;;;;18.18;nan;100735.94;5041556;28;19920;-79
2023/04/25 10:06:01;;;;;;;;;;;;;;;18.17;nan;100747.06;5051652;28;19916;-79
2023/04/25 10:08:32;;;;;;;;;;;;;;;18.32;nan;100739.47;5051541;28;19917;-80
2023/04/25 10:11:00;;;;;;;;;;;;;;;18.50;nan;100737.78;5051490;28;19975;-79
2023/04/25 10:13:25;;;;;;;;;;;;;;;18.52;nan;100749.13;5044384;28;19951;-80
2023/04/25 10:15:52;;;;;;;;;;;;;;;18.51;nan;100752.16;5048061;28;19944;-79
2023/04/25 10:18:19;;;;;;;;;;;;;;;18.47;nan;100753.81;5046734;28;20394;-80
2023/04/25 10:20:45;;;;;;;;;;;;;;;18.38;nan;100748.31;5055387;22;20353;-84
2023/04/25 10:23:13;;;;;;;;;;;;;;;18.39;nan;100760.75;5039977;28;19924;-84
2023/04/25 10:25:39;;;;;;;;;;;;;;;18.39;nan;100756.13;5044022;28;19967;-84
2023/04/25 10:28:04;;;;;;;;;;;;;;;18.31;nan;100756.84;5042026;28;19917;-83
2023/04/25 10:30:30;;;;;;;;;;;;;;;18.23;nan;100756.72;5037913;28;19925;-84
2023/04/25 10:32:55;;;;;;;;;;;;;;;18.16;nan;100765.25;5037367;28;20847;-84
2023/04/25 10:35:28;;;;;;;;;;;;;;;18.12;nan;100780.47;5038255;28;20396;-84
2023/04/25 10:37:57;;;;;;;;;;;;;;;18.02;nan;100775.25;5040814;28;20003;-84
2023/04/25 10:40:23;;;;;;;;;;;;;;;18.00;nan;100766.63;5038809;28;19925;-84
2023/04/25 10:42:48;;;;;;;;;;;;;;;17.91;nan;100784.63;5039852;28;19970;-84
2023/04/25 10:45:14;;;;;;;;;;;;;;;17.78;nan;100776.19;5040474;28;20027;-84
2023/04/25 10:47:48;;;;;;;;;;;;;;;17.71;nan;100783.88;5025023;28;20390;-84
2023/04/25 10:50:15;;;;;;;;;;;;;;;17.71;nan;100773.03;5040626;28;19948;-84
2023/04/25 10:52:40;;;;;;;;;;;;;;;17.70;nan;100784.97;5041959;28;19948;-84
2023/04/25 10:55:06;;;;;;;;;;;;;;;17.68;nan;100781.75;5041725;28;19956;-84
2023/04/25 10:57:33;;;;;;;;;;;;;;;17.69;nan;100783.34;5042157;28;20313;-83
2023/04/25 11:00:06;;;;;;;;;;;;;;;17.68;nan;100784.47;5041779;28;20021;-84
2023/04/25 11:02:31;;;;;;;;;;;;;;;17.69;nan;100780.66;5036586;28;19972;-84
2023/04/25 11:04:57;;;;;;;;;;;;;;;17.76;nan;100796.53;5041438;28;20468;-84
2023/04/25 11:07:42;;;;;;;;;;;;;;;17.82;nan;100798.06;5025823;28;19921;-84
2023/04/25 11:10:07;;;;;;;;;;;;;;;17.85;nan;100800.19;5039084;28;19921;-84
2023/04/25 11:12:33;;;;;;;;;;;;;;;17.77;nan;100800.84;5021622;28;19928;-84
2023/04/25 11:15:06;;;;;;;;;;;;;;;17.79;nan;100796.75;5042306;28;19924;-84
2023/04/25 11:17:31;;;;;;;;;;;;;;;17.81;nan;100799.97;5038816;28;19928;-84
2023/04/25 11:20:00;;;;;;;;;;;;;;;17.83;nan;100793.47;5036323;28;19920;-85
2023/04/25 11:22:26;;;;;;;;;;;;;;;17.83;nan;100798.88;5044111;28;20291;-84
2023/04/25 11:24:52;;;;;;;;;;;;;;;17.88;nan;100806.91;5027540;28;20448;-84
2023/04/25 11:27:17;;;;;;;;;;;;;;;17.84;nan;100805.91;5042350;28;20473;-84
2023/04/25 11:29:43;;;;;;;;;;;;;;;17.84;nan;100805.91;5025140;28;19933;-85
2023/04/25 11:32:08;;;;;;;;;;;;;;;17.94;nan;100806.53;5042118;28;19921;-84
2023/04/25 11:34:34;;;;;;;;;;;;;;;18.10;nan;100804.38;5044671;28;20333;-84
2023/04/25 11:37:00;;;;;;;;;;;;;;;18.12;nan;100819.25;5042523;28;19963;-85
2023/04/25 11:39:26;;;;;;;;;;;;;;;18.04;nan;100819.94;5046139;28;20011;-84
2023/04/25 11:41:51;;;;;;;;;;;;;;;17.87;nan;100833.22;5028177;28;20027;-84
2023/04/25 11:44:17;;;;;;;;;;;;;;;17.81;nan;100835.22;5043297;28;20443;-85
2023/04/25 11:46:43;;;;;;;;;;;;;;;17.74;nan;100842.88;5042294;28;19964;-85
2023/04/25 11:49:08;;;;;;;;;;;;;;;17.71;nan;100840.78;5042862;28;19960;-84
2023/04/25 11:51:44;;;;;;;;;;;;;;;17.74;nan;100848.31;5045485;28;20412;-84
2023/04/25 11:54:11;;;;;;;;;;;;;;;17.62;nan;100842.50;5041755;28;19990;-84
2023/04/25 11:56:37;;;;;;;;;;;;;;;17.54;nan;100862.13;5044217;28;19920;-84
2023/04/25 11:59:03;;;;;;;;;;;;;;;17.47;nan;100853.56;5039431;28;19920;-84
2023/04/25 12:01:30;;;;;;;;;;;;;;;17.51;nan;100858.09;5045679;28;19963;-85
2023/04/25 12:03:55;;;;;;;;;;;;;;;17.51;nan;100860.78;5042887;28;19956;-85
2023/04/25 12:06:20;;;;;;;;;;;;;;;17.59;nan;100864.75;5044048;28;19967;-84
2023/04/25 12:09:01;;;;;;;;;;;;;;;17.81;nan;100865.03;5043465;28;19932;-83
2023/04/25 12:11:26;;;;;;;;;;;;;;;17.92;nan;100868.38;5036672;28;20119;-84
2023/04/25 12:13:53;;;;;;;;;;;;;;;17.93;nan;100871.88;5045343;28;20347;-84
2023/04/25 12:16:18;;;;;;;;;;;;;;;17.84;nan;100870.94;5045738;28;20119;-85
2023/04/25 12:18:43;;;;;;;;;;;;;;;17.81;nan;100862.31;5039709;28;20041;-85
2023/04/25 12:21:09;;;;;;;;;;;;;;;17.80;nan;100866.13;5042446;28;19925;-85
2023/04/25 12:23:38;;;;;;;;;;;;;;;17.72;nan;100865.97;5046800;28;19936;-85
2023/04/25 12:26:03;;;;;;;;;;;;;;;17.74;nan;100882.72;5044546;28;19928;-84
2023/04/25 12:28:33;;;;;;;;;;;;;;;17.88;nan;100885.53;5044315;28;19920;-85
2023/04/25 12:31:02;;;;;;;;;;;;;;;17.94;nan;100882.44;5048817;28;20410;-84
2023/04/25 12:33:29;;;;;;;;;;;;;;;18.07;nan;100883.59;5047135;28;19929;-85
2023/04/25 12:35:55;;;;;;;;;;;;;;;18.19;nan;100883.16;5029693;28;20151;-85
2023/04/25 12:38:30;;;;;;;;;;;;;;;18.22;nan;100880.66;5050897;28;20396;-84
2023/04/25 12:40:55;;;;;;;;;;;;;;;18.28;nan;100884.09;5048284;28;19932;-85
2023/04/25 12:43:21;;;;;;;;;;;;;;;18.20;nan;100877.44;5050061;28;20003;-85
2023/04/25 12:45:53;;;;;;;;;;;;;;;18.24;nan;100877.66;5047533;28;20274;-85
2023/04/25 12:48:19;;;;;;;;;;;;;;;18.30;nan;100874.56;5049197;28;20446;-85
2023/04/25 12:50:47;;;;;;;;;;;;;;;18.28;nan;100884.91;5046961;28;19920;-84